Time;durP1;ratioP1;P1;durP2;ratioP2;P2;SDS_P1;SDS_P2;PMS_P1;PMS_P2;Temp;Humidity;BMP_temperature;BMP_pressure;BME280_temperature;BME280_humidity;BME280_pressure;Samples;Min_cycle;Max_cycle;Signal;HPM_P1;HPM_P2
2021/03/04 00:00:33;;;;;;;5.87;2.43;;;;;;;;;;5113749;28;20427;-55
2021/03/04 00:03:00;;;;;;;5.25;2.50;;;;;;;;;;5113555;28;20386;-55
2021/03/04 00:05:26;;;;;;;8.07;2.60;;;;;;;;;;5113809;28;20020;-55
2021/03/04 00:07:53;;;;;;;3.40;2.17;;;;;;;;;;5113495;28;20023;-55
2021/03/04 00:10:21;;;;;;;5.57;2.50;;;;;;;;;;5113624;28;20469;-55
2021/03/04 00:12:48;;;;;;;4.87;2.53;;;;;;;;;;5113287;28;20028;-55
2021/03/04 00:15:16;;;;;;;6.63;2.60;;;;;;;;;;5113453;28;20043;-55
2021/03/04 00:17:44;;;;;;;6.23;2.57;;;;;;;;;;5113470;28;20528;-55
2021/03/04 00:20:13;;;;;;;4.00;2.30;;;;;;;;;;5113444;28;20494;-55
2021/03/04 00:22:40;;;;;;;7.00;2.63;;;;;;;;;;5113520;28;20019;-55
2021/03/04 00:25:07;;;;;;;8.00;3.10;;;;;;;;;;5113447;28;20024;-56
2021/03/04 00:27:34;;;;;;;8.73;2.63;;;;;;;;;;5113339;28;20024;-55
2021/03/04 00:30:01;;;;;;;8.63;2.77;;;;;;;;;;5113327;28;20035;-55
2021/03/04 00:32:28;;;;;;;8.57;2.80;;;;;;;;;;5113267;28;20024;-55
2021/03/04 00:34:54;;;;;;;8.50;2.67;;;;;;;;;;5113344;28;20397;-55
2021/03/04 00:37:21;;;;;;;18.73;3.00;;;;;;;;;;5113308;28;20087;-55
2021/03/04 00:39:48;;;;;;;8.47;2.57;;;;;;;;;;5113384;28;20362;-55
2021/03/04 00:42:15;;;;;;;10.67;2.50;;;;;;;;;;5113164;28;20103;-55
2021/03/04 00:44:42;;;;;;;7.00;2.90;;;;;;;;;;5113112;28;20035;-55
2021/03/04 00:47:08;;;;;;;6.33;2.37;;;;;;;;;;5114086;27;20020;-55
2021/03/04 00:49:35;;;;;;;5.20;2.37;;;;;;;;;;5092818;28;20044;-55
2021/03/04 00:52:02;;;;;;;7.53;2.67;;;;;;;;;;5092873;28;20062;-55
2021/03/04 00:54:29;;;;;;;9.47;2.50;;;;;;;;;;5092876;28;20028;-55
2021/03/04 00:56:56;;;;;;;11.23;2.67;;;;;;;;;;5092728;28;20056;-55
2021/03/04 00:59:22;;;;;;;6.43;2.70;;;;;;;;;;5092670;28;20367;-55
2021/03/04 01:01:50;;;;;;;6.90;2.80;;;;;;;;;;5092692;28;20115;-55
2021/03/04 01:04:16;;;;;;;3.70;2.23;;;;;;;;;;5092617;28;20028;-55
2021/03/04 01:06:43;;;;;;;5.87;2.23;;;;;;;;;;5092672;28;20032;-55
2021/03/04 01:09:10;;;;;;;6.13;2.83;;;;;;;;;;5092565;28;20378;-55
2021/03/04 01:11:37;;;;;;;8.23;2.50;;;;;;;;;;5092949;28;20024;-55
2021/03/04 01:14:04;;;;;;;6.37;2.50;;;;;;;;;;5092541;28;20024;-55
2021/03/04 01:16:30;;;;;;;6.53;2.60;;;;;;;;;;5092345;28;20102;-55
2021/03/04 01:18:57;;;;;;;7.67;2.60;;;;;;;;;;5092592;28;20031;-55
2021/03/04 01:21:24;;;;;;;9.03;2.87;;;;;;;;;;5092637;28;20103;-55
2021/03/04 01:23:51;;;;;;;6.47;2.80;;;;;;;;;;5093725;28;20425;-55
2021/03/04 01:26:17;;;;;;;7.23;2.97;;;;;;;;;;5096357;28;20012;-55
2021/03/04 01:28:44;;;;;;;11.80;3.50;;;;;;;;;;5096152;28;20109;-55
2021/03/04 01:31:15;;;;;;;8.97;3.40;;;;;;;;;;5096505;28;20035;-55
2021/03/04 01:33:41;;;;;;;11.87;3.00;;;;;;;;;;5096240;28;20032;-55
2021/03/04 01:36:08;;;;;;;8.43;3.00;;;;;;;;;;5096023;28;20028;-55
2021/03/04 01:38:35;;;;;;;6.87;2.70;;;;;;;;;;5095975;28;20042;-55
2021/03/04 01:41:02;;;;;;;5.73;2.73;;;;;;;;;;5096129;28;20113;-55
2021/03/04 01:43:29;;;;;;;5.87;3.03;;;;;;;;;;5095937;28;20039;-55
2021/03/04 01:45:55;;;;;;;8.17;2.33;;;;;;;;;;5096021;28;20490;-55
2021/03/04 01:48:22;;;;;;;5.90;2.70;;;;;;;;;;5106860;27;20051;-55
2021/03/04 01:50:49;;;;;;;6.17;2.60;;;;;;;;;;5116194;28;20034;-55
2021/03/04 01:53:16;;;;;;;10.97;3.20;;;;;;;;;;5116242;28;20485;-55
2021/03/04 01:55:43;;;;;;;6.63;2.80;;;;;;;;;;5116112;28;20043;-55
2021/03/04 01:58:10;;;;;;;13.13;2.90;;;;;;;;;;5115929;28;20085;-55
2021/03/04 02:00:36;;;;;;;6.37;2.53;;;;;;;;;;5116236;28;20024;-55
2021/03/04 02:03:03;;;;;;;6.00;2.93;;;;;;;;;;5115981;28;20472;-55
2021/03/04 02:05:30;;;;;;;9.73;2.63;;;;;;;;;;5115859;28;20115;-55
2021/03/04 02:08:02;;;;;;;10.17;3.10;;;;;;;;;;5115828;28;20027;-55
2021/03/04 02:10:29;;;;;;;6.93;3.30;;;;;;;;;;5115742;28;20054;-55
2021/03/04 02:13:00;;;;;;;6.93;3.00;;;;;;;;;;5115925;28;20028;-55
2021/03/04 02:15:31;;;;;;;7.27;2.70;;;;;;;;;;5115851;28;20462;-55
2021/03/04 02:17:59;;;;;;;4.87;2.90;;;;;;;;;;5115700;28;20382;-55
2021/03/04 02:20:32;;;;;;;11.50;2.90;;;;;;;;;;5115752;28;20028;-55
2021/03/04 02:23:06;;;;;;;5.60;3.03;;;;;;;;;;5115722;28;20103;-55
2021/03/04 02:25:55;;;;;;;8.43;2.50;;;;;;;;;;5115577;28;20351;-55
2021/03/04 02:28:24;;;;;;;5.80;3.10;;;;;;;;;;5115330;28;20777;-55
2021/03/04 02:30:51;;;;;;;5.77;2.50;;;;;;;;;;5115573;28;20023;-55
2021/03/04 02:33:20;;;;;;;6.83;2.27;;;;;;;;;;5115283;28;20157;-55
2021/03/04 02:35:47;;;;;;;5.40;2.70;;;;;;;;;;5115331;28;20061;-55
2021/03/04 02:38:16;;;;;;;7.50;3.03;;;;;;;;;;5115221;28;20039;-55
2021/03/04 02:40:44;;;;;;;18.37;4.57;;;;;;;;;;5115345;28;20020;-55
2021/03/04 02:43:12;;;;;;;6.50;3.07;;;;;;;;;;5115355;28;20031;-55
2021/03/04 02:45:39;;;;;;;6.67;3.10;;;;;;;;;;5115264;28;20047;-55
2021/03/04 02:48:06;;;;;;;9.03;3.37;;;;;;;;;;5115967;27;20056;-55
2021/03/04 02:50:33;;;;;;;5.07;3.10;;;;;;;;;;5115180;28;20466;-55
2021/03/04 02:53:00;;;;;;;9.10;2.80;;;;;;;;;;5115159;28;20382;-55
2021/03/04 02:55:27;;;;;;;4.87;3.17;;;;;;;;;;5115089;28;20425;-55
2021/03/04 02:57:55;;;;;;;6.60;2.67;;;;;;;;;;5114745;28;20035;-55
2021/03/04 03:00:23;;;;;;;7.60;2.73;;;;;;;;;;5114942;28;20138;-55
2021/03/04 03:02:51;;;;;;;9.20;2.97;;;;;;;;;;5114792;28;20359;-54
2021/03/04 03:05:19;;;;;;;6.07;2.43;;;;;;;;;;5114933;28;20020;-55
2021/03/04 03:07:46;;;;;;;9.43;3.13;;;;;;;;;;5114779;28;20035;-55
2021/03/04 03:10:14;;;;;;;5.83;2.50;;;;;;;;;;5114771;28;20034;-55
2021/03/04 03:12:43;;;;;;;4.07;2.30;;;;;;;;;;5114668;28;20031;-55
2021/03/04 03:15:11;;;;;;;10.70;3.20;;;;;;;;;;5114686;28;20024;-55
2021/03/04 03:17:39;;;;;;;4.53;2.47;;;;;;;;;;5114359;28;20039;-55
2021/03/04 03:20:10;;;;;;;7.87;2.67;;;;;;;;;;5114509;28;20020;-55
2021/03/04 03:22:37;;;;;;;4.43;2.20;;;;;;;;;;5114415;28;20032;-54
2021/03/04 03:25:05;;;;;;;6.60;2.63;;;;;;;;;;5114353;28;20024;-55
2021/03/04 03:27:32;;;;;;;7.23;2.87;;;;;;;;;;5114283;28;20385;-55
2021/03/04 03:30:03;;;;;;;10.13;2.60;;;;;;;;;;5114378;28;20027;-55
2021/03/04 03:32:32;;;;;;;4.57;2.93;;;;;;;;;;5114362;28;20032;-55
2021/03/04 03:35:00;;;;;;;7.17;2.23;;;;;;;;;;5114298;28;20019;-54
2021/03/04 03:37:29;;;;;;;6.13;2.03;;;;;;;;;;5114144;28;20028;-55
2021/03/04 03:39:56;;;;;;;10.20;2.50;;;;;;;;;;5114400;28;20381;-55
2021/03/04 03:42:23;;;;;;;5.27;2.07;;;;;;;;;;5114158;28;20031;-55
2021/03/04 03:44:50;;;;;;;5.47;2.03;;;;;;;;;;5113963;28;20027;-55
2021/03/04 03:47:17;;;;;;;4.27;1.90;;;;;;;;;;5113499;28;20031;-55
2021/03/04 03:49:45;;;;;;;3.50;1.93;;;;;;;;;;5114838;27;20063;-55
2021/03/04 03:52:12;;;;;;;4.60;2.13;;;;;;;;;;5113756;28;20016;-54
2021/03/04 03:54:38;;;;;;;5.13;2.33;;;;;;;;;;5113942;28;20027;-54
2021/03/04 03:57:06;;;;;;;7.57;2.53;;;;;;;;;;5113723;28;20122;-54
2021/03/04 03:59:33;;;;;;;5.83;2.30;;;;;;;;;;5095521;28;20027;-55
2021/03/04 04:02:00;;;;;;;9.47;2.50;;;;;;;;;;5113819;28;20034;-54
2021/03/04 04:04:27;;;;;;;9.33;2.17;;;;;;;;;;5113942;28;20420;-54
2021/03/04 04:06:55;;;;;;;6.17;2.07;;;;;;;;;;5113556;28;20469;-54
2021/03/04 04:09:23;;;;;;;11.90;3.77;;;;;;;;;;5113738;28;20023;-54
2021/03/04 04:11:50;;;;;;;7.50;3.47;;;;;;;;;;5113769;28;20031;-54
2021/03/04 04:14:17;;;;;;;5.50;2.50;;;;;;;;;;5113593;28;20403;-55
2021/03/04 04:16:44;;;;;;;9.87;3.47;;;;;;;;;;5113485;28;20016;-54
2021/03/04 04:19:11;;;;;;;5.70;2.70;;;;;;;;;;5113345;28;20039;-55
2021/03/04 04:21:38;;;;;;;4.90;2.47;;;;;;;;;;5113594;28;20019;-55
2021/03/04 04:24:05;;;;;;;5.73;3.37;;;;;;;;;;5113537;28;20043;-54
2021/03/04 04:26:32;;;;;;;4.33;2.23;;;;;;;;;;5113321;28;20031;-54
2021/03/04 04:28:58;;;;;;;6.83;2.73;;;;;;;;;;5113120;28;20482;-54
2021/03/04 04:31:25;;;;;;;5.40;2.30;;;;;;;;;;5113450;28;20024;-54
2021/03/04 04:33:52;;;;;;;12.70;2.50;;;;;;;;;;5113313;28;20055;-54
2021/03/04 04:36:19;;;;;;;3.07;2.07;;;;;;;;;;5113266;28;20020;-53
2021/03/04 04:38:45;;;;;;;4.30;2.07;;;;;;;;;;5113156;28;20114;-53
2021/03/04 04:41:12;;;;;;;6.90;2.30;;;;;;;;;;5113291;28;20468;-53
2021/03/04 04:43:39;;;;;;;5.40;2.67;;;;;;;;;;5113326;28;20023;-53
2021/03/04 04:46:06;;;;;;;9.57;2.43;;;;;;;;;;5113070;28;20020;-53
2021/03/04 04:48:33;;;;;;;10.17;2.80;;;;;;;;;;5114041;27;20051;-53
2021/03/04 04:51:00;;;;;;;4.60;2.23;;;;;;;;;;5113135;28;20032;-54
2021/03/04 04:53:26;;;;;;;4.37;1.90;;;;;;;;;;5113200;28;20449;-54
2021/03/04 04:55:53;;;;;;;7.17;2.73;;;;;;;;;;5113000;28;20035;-54
2021/03/04 04:58:20;;;;;;;8.93;2.67;;;;;;;;;;5113384;28;20032;-54
2021/03/04 05:00:47;;;;;;;6.50;2.53;;;;;;;;;;5117295;28;20050;-54
2021/03/04 05:03:13;;;;;;;4.83;1.80;;;;;;;;;;5117344;28;20026;-54
2021/03/04 05:05:40;;;;;;;3.70;2.20;;;;;;;;;;5117306;28;20030;-54
2021/03/04 05:08:07;;;;;;;4.53;2.20;;;;;;;;;;5117091;28;20058;-54
2021/03/04 05:10:34;;;;;;;10.80;4.03;;;;;;;;;;5117219;28;20016;-54
2021/03/04 05:13:00;;;;;;;8.67;4.63;;;;;;;;;;5116975;28;20437;-54
2021/03/04 05:15:27;;;;;;;9.10;3.80;;;;;;;;;;5117140;28;20028;-54
2021/03/04 05:17:54;;;;;;;12.90;3.23;;;;;;;;;;5116859;28;20118;-54
2021/03/04 05:20:21;;;;;;;9.20;3.23;;;;;;;;;;5116970;28;20024;-54
2021/03/04 05:22:48;;;;;;;9.33;3.63;;;;;;;;;;5116795;28;20028;-54
2021/03/04 05:25:15;;;;;;;9.17;3.53;;;;;;;;;;5116842;28;20023;-54
2021/03/04 05:27:41;;;;;;;5.87;2.30;;;;;;;;;;5116681;28;20238;-54
2021/03/04 05:30:08;;;;;;;6.67;2.47;;;;;;;;;;5116639;28;20027;-54
2021/03/04 05:32:35;;;;;;;8.13;3.03;;;;;;;;;;5116752;28;20535;-54
2021/03/04 05:35:03;;;;;;;6.70;2.77;;;;;;;;;;5116700;28;20028;-54
2021/03/04 05:37:29;;;;;;;5.03;2.43;;;;;;;;;;5116473;28;20380;-54
2021/03/04 05:39:56;;;;;;;4.37;2.43;;;;;;;;;;5116416;28;20036;-54
2021/03/04 05:42:23;;;;;;;7.33;2.77;;;;;;;;;;5116570;28;20032;-54
2021/03/04 05:44:50;;;;;;;7.93;4.03;;;;;;;;;;5116476;28;20023;-54
2021/03/04 05:47:19;;;;;;;4.80;2.23;;;;;;;;;;5116306;28;20035;-54
2021/03/04 05:49:51;;;;;;;4.60;2.40;;;;;;;;;;5117140;27;20413;-54
2021/03/04 05:52:18;;;;;;;3.47;2.00;;;;;;;;;;5098027;28;20596;-54
2021/03/04 05:54:46;;;;;;;4.10;2.40;;;;;;;;;;5116208;28;20434;-54
2021/03/04 05:57:14;;;;;;;5.30;2.27;;;;;;;;;;5116064;28;20039;-54
2021/03/04 05:59:42;;;;;;;4.87;2.47;;;;;;;;;;5116453;28;20024;-54
2021/03/04 06:02:09;;;;;;;2.87;1.87;;;;;;;;;;5097864;28;20027;-54
2021/03/04 06:04:36;;;;;;;5.57;2.70;;;;;;;;;;5116135;28;20084;-54
2021/03/04 06:07:03;;;;;;;4.70;2.30;;;;;;;;;;5116030;28;20039;-54
2021/03/04 06:09:30;;;;;;;4.00;2.10;;;;;;;;;;5115487;28;20024;-54
2021/03/04 06:12:04;;;;;;;4.30;2.03;;;;;;;;;;5115910;28;20064;-54
2021/03/04 06:14:34;;;;;;;4.60;2.07;;;;;;;;;;5115853;28;20019;-54
2021/03/04 06:17:19;;;;;;;4.57;2.10;;;;;;;;;;5115860;28;20023;-54
2021/03/04 06:19:57;;;;;;;4.53;2.30;;;;;;;;;;5115766;28;20030;-54
2021/03/04 06:22:27;;;;;;;4.33;2.47;;;;;;;;;;5115840;28;20016;-54
2021/03/04 06:24:55;;;;;;;6.27;2.03;;;;;;;;;;5115777;28;20020;-54
2021/03/04 06:27:31;;;;;;;6.63;2.50;;;;;;;;;;5115600;28;20399;-54
2021/03/04 06:30:02;;;;;;;5.27;2.07;;;;;;;;;;5115601;28;20090;-54
2021/03/04 06:32:29;;;;;;;4.73;2.00;;;;;;;;;;5115458;28;20133;-54
2021/03/04 06:35:06;;;;;;;3.73;2.40;;;;;;;;;;5115819;28;20012;-54
2021/03/04 06:37:34;;;;;;;6.90;2.70;;;;;;;;;;5115336;28;20496;-54
2021/03/04 06:40:01;;;;;;;4.60;2.07;;;;;;;;;;5115290;28;20102;-54
2021/03/04 06:42:38;;;;;;;8.57;2.53;;;;;;;;;;5115356;28;20040;-54
2021/03/04 06:45:05;;;;;;;3.57;2.00;;;;;;;;;;5115326;28;20026;-54
2021/03/04 06:47:32;;;;;;;3.03;1.80;;;;;;;;;;5115117;28;20088;-54
2021/03/04 06:49:59;;;;;;;3.30;1.70;;;;;;;;;;5116132;27;20510;-54
2021/03/04 06:52:26;;;;;;;2.80;1.70;;;;;;;;;;5115174;28;20058;-54
2021/03/04 06:54:53;;;;;;;5.03;1.93;;;;;;;;;;5115133;28;20028;-53
2021/03/04 06:57:21;;;;;;;2.80;1.70;;;;;;;;;;5114991;28;20038;-54
2021/03/04 06:59:48;;;;;;;8.80;2.47;;;;;;;;;;5115012;28;20030;-54
2021/03/04 07:02:29;;;;;;;3.93;1.87;;;;;;;;;;5114879;28;20039;-54
2021/03/04 07:05:02;;;;;;;6.10;2.27;;;;;;;;;;5114806;28;20031;-54
2021/03/04 07:07:30;;;;;;;3.60;2.00;;;;;;;;;;5114807;28;20031;-54
2021/03/04 07:09:57;;;;;;;5.03;2.07;;;;;;;;;;5114685;28;20027;-53
2021/03/04 07:12:25;;;;;;;3.90;2.30;;;;;;;;;;5114671;28;20486;-54
2021/03/04 07:14:52;;;;;;;3.60;1.87;;;;;;;;;;5114609;28;20095;-53
2021/03/04 07:17:22;;;;;;;3.80;2.20;;;;;;;;;;5114422;28;20046;-54
2021/03/04 07:19:50;;;;;;;5.17;2.00;;;;;;;;;;5114612;28;20254;-53
2021/03/04 07:22:20;;;;;;;4.77;2.40;;;;;;;;;;5113735;28;20606;-54
2021/03/04 07:24:47;;;;;;;3.83;2.10;;;;;;;;;;5114431;28;20046;-54
2021/03/04 07:27:15;;;;;;;3.93;2.23;;;;;;;;;;5114298;28;20027;-54
2021/03/04 07:29:55;;;;;;;3.57;2.10;;;;;;;;;;5114460;28;20389;-54
2021/03/04 07:32:23;;;;;;;5.40;2.30;;;;;;;;;;5114329;28;20471;-53
2021/03/04 07:34:49;;;;;;;3.70;2.20;;;;;;;;;;5114413;28;20478;-53
2021/03/04 07:37:18;;;;;;;5.40;2.90;;;;;;;;;;5114221;28;20501;-53
2021/03/04 07:39:48;;;;;;;4.30;2.03;;;;;;;;;;5114159;28;20036;-53
2021/03/04 07:42:23;;;;;;;4.00;1.80;;;;;;;;;;5114066;28;20024;-53
2021/03/04 07:44:50;;;;;;;4.82;2.10;;;;;;;;;;5114177;28;20062;-53
2021/03/04 07:47:24;;;;;;;4.77;2.23;;;;;;;;;;5114321;28;20466;-53
2021/03/04 07:49:51;;;;;;;2.97;1.90;;;;;;;;;;5114923;27;20433;-54
2021/03/04 07:52:19;;;;;;;4.90;2.23;;;;;;;;;;5113821;28;20118;-53
2021/03/04 07:54:50;;;;;;;6.80;1.60;;;;;;;;;;5113788;28;20437;-53
2021/03/04 07:57:17;;;;;;;5.10;2.43;;;;;;;;;;5113829;28;20082;-53
2021/03/04 07:59:51;;;;;;;4.73;2.40;;;;;;;;;;5113718;28;20504;-53
2021/03/04 08:02:28;;;;;;;11.80;2.63;;;;;;;;;;5113896;28;20247;-53
2021/03/04 08:05:08;;;;;;;5.50;2.23;;;;;;;;;;5113766;28;20252;-53
2021/03/04 08:07:35;;;;;;;4.30;2.20;;;;;;;;;;5113890;28;20335;-53
2021/03/04 08:10:06;;;;;;;3.97;2.07;;;;;;;;;;5113689;28;20248;-53
2021/03/04 08:12:43;;;;;;;5.43;2.07;;;;;;;;;;5113752;28;20024;-53
2021/03/04 08:15:11;;;;;;;5.97;2.20;;;;;;;;;;5113561;28;20244;-53
2021/03/04 08:17:38;;;;;;;8.17;2.27;;;;;;;;;;5113500;28;20027;-53
2021/03/04 08:20:11;;;;;;;4.37;1.90;;;;;;;;;;5113323;28;20244;-53
2021/03/04 08:22:44;;;;;;;3.73;2.20;;;;;;;;;;5113438;28;20260;-53
2021/03/04 08:25:12;;;;;;;5.10;2.40;;;;;;;;;;5113527;28;20297;-53
2021/03/04 08:27:39;;;;;;;3.73;2.00;;;;;;;;;;5113483;28;20263;-53
2021/03/04 08:30:06;;;;;;;3.90;2.07;;;;;;;;;;5113433;28;20263;-53
2021/03/04 08:32:34;;;;;;;6.90;2.63;;;;;;;;;;5113206;28;20252;-53
2021/03/04 08:35:00;;;;;;;3.80;2.30;;;;;;;;;;5113313;28;20252;-53
2021/03/04 08:37:29;;;;;;;4.87;2.67;;;;;;;;;;5113242;28;20770;-53
2021/03/04 08:40:02;;;;;;;5.00;2.30;;;;;;;;;;5113409;28;20393;-53
2021/03/04 08:42:29;;;;;;;7.17;2.43;;;;;;;;;;5113264;28;20745;-53
2021/03/04 08:44:55;;;;;;;4.33;2.37;;;;;;;;;;5113188;28;20263;-53
2021/03/04 08:47:22;;;;;;;4.30;2.07;;;;;;;;;;5112951;28;20260;-53
2021/03/04 08:49:56;;;;;;;3.47;2.03;;;;;;;;;;5113786;27;20333;-53
2021/03/04 08:52:25;;;;;;;4.90;1.52;;;;;;;;;;5113297;28;20251;-53
2021/03/04 08:54:53;;;;;;;4.13;2.03;;;;;;;;;;5113116;28;20051;-53
2021/03/04 08:57:24;;;;;;;5.63;2.57;;;;;;;;;;5113287;28;20294;-53
2021/03/04 09:00:01;;;;;;;7.07;1.83;;;;;;;;;;5113164;28;20572;-53
2021/03/04 09:02:28;;;;;;;3.03;1.90;;;;;;;;;;5113149;28;20305;-53
2021/03/04 09:04:55;;;;;;;3.87;2.13;;;;;;;;;;5113092;28;20255;-53
2021/03/04 09:07:31;;;;;;;6.80;2.10;;;;;;;;;;5113070;28;20260;-53
2021/03/04 09:10:01;;;;;;;3.87;2.23;;;;;;;;;;5113064;28;20258;-53
2021/03/04 09:12:28;;;;;;;4.63;1.93;;;;;;;;;;5112939;28;20656;-53
2021/03/04 09:14:56;;;;;;;6.53;1.97;;;;;;;;;;5113043;28;20247;-53
2021/03/04 09:17:23;;;;;;;5.00;2.40;;;;;;;;;;5112925;28;20379;-53
2021/03/04 09:19:54;;;;;;;6.60;2.27;;;;;;;;;;5112927;28;20270;-53
2021/03/04 09:22:21;;;;;;;6.27;2.10;;;;;;;;;;5112999;28;20339;-53
2021/03/04 09:24:49;;;;;;;4.00;2.20;;;;;;;;;;5113145;28;20301;-53
2021/03/04 09:27:18;;;;;;;5.03;2.20;;;;;;;;;;5112722;28;20336;-53
2021/03/04 09:29:45;;;;;;;4.63;2.03;;;;;;;;;;5112917;28;20765;-53
2021/03/04 09:32:14;;;;;;;4.13;2.40;;;;;;;;;;5112800;28;20252;-53
2021/03/04 09:34:42;;;;;;;6.60;1.93;;;;;;;;;;5112867;28;20244;-53
2021/03/04 09:37:14;;;;;;;3.77;2.50;;;;;;;;;;5112724;28;20283;-53
2021/03/04 09:39:48;;;;;;;5.73;2.57;;;;;;;;;;5112818;28;20313;-53
2021/03/04 09:42:21;;;;;;;4.93;2.30;;;;;;;;;;5113027;28;20236;-53
2021/03/04 09:44:48;;;;;;;4.07;2.30;;;;;;;;;;5114059;28;20024;-53
2021/03/04 09:47:19;;;;;;;5.30;2.33;;;;;;;;;;5116263;28;20327;-53
2021/03/04 09:49:46;;;;;;;4.13;2.20;;;;;;;;;;5116815;27;20649;-53
2021/03/04 09:52:21;;;;;;;3.47;2.00;;;;;;;;;;5116425;28;20781;-53
2021/03/04 09:54:48;;;;;;;4.57;2.23;;;;;;;;;;5116327;28;20248;-53
2021/03/04 09:57:21;;;;;;;4.27;2.37;;;;;;;;;;5116023;28;20283;-53
2021/03/04 09:59:49;;;;;;;4.53;2.57;;;;;;;;;;5116217;28;20248;-53
2021/03/04 10:02:17;;;;;;;3.80;2.27;;;;;;;;;;5116208;28;20263;-53
2021/03/04 10:04:54;;;;;;;4.53;2.70;;;;;;;;;;5116112;28;20258;-53
2021/03/04 10:07:39;;;;;;;8.93;3.30;;;;;;;;;;5116257;28;20260;-53
2021/03/04 10:10:11;;;;;;;6.60;3.17;;;;;;;;;;5116075;28;20252;-53
2021/03/04 10:12:46;;;;;;;3.87;2.20;;;;;;;;;;5116078;28;20023;-53
2021/03/04 10:15:13;;;;;;;;;;;;;;;;;;5116383;28;20339;-53
2021/03/04 10:17:40;;;;;;;5.97;2.60;;;;;;;;;;5115815;28;19956;-53
2021/03/04 10:20:07;;;;;;;6.33;3.40;;;;;;;;;;5115790;28;20251;-53
2021/03/04 10:22:34;;;;;;;8.07;2.90;;;;;;;;;;5115690;28;20264;-53
2021/03/04 10:25:02;;;;;;;4.47;2.60;;;;;;;;;;5115792;28;20595;-53
2021/03/04 10:27:28;;;;;;;5.97;2.90;;;;;;;;;;5115568;28;20730;-53
2021/03/04 10:29:55;;;;;;;6.13;3.23;;;;;;;;;;5115492;28;20606;-53
2021/03/04 10:32:22;;;;;;;7.53;3.40;;;;;;;;;;5115673;28;20337;-53
2021/03/04 10:34:49;;;;;;;9.20;3.50;;;;;;;;;;5115446;28;20260;-53
2021/03/04 10:37:15;;;;;;;6.03;2.90;;;;;;;;;;5115447;28;20314;-53
2021/03/04 10:39:42;;;;;;;5.50;2.37;;;;;;;;;;5115401;28;20260;-53
2021/03/04 10:42:09;;;;;;;6.70;3.20;;;;;;;;;;5115341;28;20267;-53
2021/03/04 10:44:38;;;;;;;5.40;2.83;;;;;;;;;;5115195;28;20260;-53
2021/03/04 10:47:04;;;;;;;6.70;3.13;;;;;;;;;;5115140;28;20376;-53
2021/03/04 10:49:31;;;;;;;4.87;2.47;;;;;;;;;;5115801;27;20291;-53
2021/03/04 10:51:58;;;;;;;7.73;3.00;;;;;;;;;;5115207;28;20289;-53
2021/03/04 10:54:25;;;;;;;6.90;3.30;;;;;;;;;;5115074;28;20649;-53
2021/03/04 10:56:51;;;;;;;8.60;3.20;;;;;;;;;;5115049;28;20275;-53
2021/03/04 10:59:18;;;;;;;7.00;3.53;;;;;;;;;;5115026;28;20448;-53
2021/03/04 11:01:45;;;;;;;9.70;3.47;;;;;;;;;;5114976;28;20602;-53
2021/03/04 11:04:12;;;;;;;9.20;3.00;;;;;;;;;;5114890;28;20340;-53
2021/03/04 11:06:39;;;;;;;7.37;3.40;;;;;;;;;;5114903;28;20244;-53
2021/03/04 11:09:05;;;;;;;9.80;3.47;;;;;;;;;;5114883;28;20258;-53
2021/03/04 11:11:32;;;;;;;6.00;3.20;;;;;;;;;;5114762;28;20633;-53
2021/03/04 11:13:59;;;;;;;5.73;3.07;;;;;;;;;;5114691;28;20249;-53
2021/03/04 11:16:26;;;;;;;7.67;2.67;;;;;;;;;;5115031;28;20282;-53
2021/03/04 11:18:52;;;;;;;7.83;3.40;;;;;;;;;;5114923;28;20817;-53
2021/03/04 11:21:19;;;;;;;4.97;2.57;;;;;;;;;;5114680;28;20244;-53
2021/03/04 11:23:46;;;;;;;5.23;2.87;;;;;;;;;;5114603;28;20349;-53
2021/03/04 11:26:13;;;;;;;6.90;2.97;;;;;;;;;;5114383;28;20603;-53
2021/03/04 11:28:39;;;;;;;6.97;2.80;;;;;;;;;;5114381;28;20350;-53
2021/03/04 11:31:06;;;;;;;11.73;3.60;;;;;;;;;;5114446;28;20252;-53
2021/03/04 11:33:33;;;;;;;4.90;2.83;;;;;;;;;;5114405;28;20288;-53
2021/03/04 11:36:03;;;;;;;6.43;2.70;;;;;;;;;;5114424;28;20256;-53
2021/03/04 11:38:29;;;;;;;4.27;2.40;;;;;;;;;;5114201;28;20287;-53
2021/03/04 11:40:56;;;;;;;7.23;2.70;;;;;;;;;;5114318;28;20642;-53
2021/03/04 11:43:23;;;;;;;6.17;3.27;;;;;;;;;;5114261;28;20255;-53
2021/03/04 11:45:51;;;;;;;5.37;2.73;;;;;;;;;;5114086;28;20355;-53
2021/03/04 11:48:18;;;;;;;5.83;2.83;;;;;;;;;;5114088;28;20248;-53
2021/03/04 11:50:44;;;;;;;4.93;1.70;;;;;;;;;;5114773;27;20287;-53
2021/03/04 11:53:11;;;;;;;5.70;2.67;;;;;;;;;;5114109;28;20279;-53
2021/03/04 11:55:38;;;;;;;4.10;2.10;;;;;;;;;;5113882;28;20248;-53
2021/03/04 11:58:05;;;;;;;2.70;1.70;;;;;;;;;;5113711;28;20280;-53
2021/03/04 12:00:31;;;;;;;4.50;2.07;;;;;;;;;;5113937;28;20274;-53
2021/03/04 12:02:58;;;;;;;3.53;1.87;;;;;;;;;;5114189;28;20252;-53
2021/03/04 12:05:25;;;;;;;4.10;2.33;;;;;;;;;;5095635;28;20244;-53
2021/03/04 12:07:52;;;;;;;5.60;2.13;;;;;;;;;;5113208;28;20305;-53
2021/03/04 12:10:18;;;;;;;8.70;2.33;;;;;;;;;;5113741;28;20622;-53
2021/03/04 12:12:45;;;;;;;5.27;2.27;;;;;;;;;;5113767;28;20729;-53
2021/03/04 12:15:16;;;;;;;3.77;2.37;;;;;;;;;;5113624;28;20722;-53
2021/03/04 12:17:44;;;;;;;3.00;2.00;;;;;;;;;;5113482;28;20324;-53
2021/03/04 12:20:10;;;;;;;3.67;2.10;;;;;;;;;;5113443;28;20252;-53
2021/03/04 12:22:37;;;;;;;3.20;1.80;;;;;;;;;;5113560;28;20260;-53
2021/03/04 12:25:17;;;;;;;3.20;1.73;;;;;;;;;;5113521;28;20248;-53
2021/03/04 12:27:44;;;;;;;6.00;2.20;;;;;;;;;;5113393;28;20282;-53
2021/03/04 12:30:16;;;;;;;4.73;2.30;;;;;;;;;;5113404;28;20255;-53
2021/03/04 12:32:43;;;;;;;6.40;2.40;;;;;;;;;;5113388;28;20256;-53
2021/03/04 12:35:11;;;;;;;3.73;2.10;;;;;;;;;;5113406;28;20267;-53
2021/03/04 12:37:38;;;;;;;5.97;2.83;;;;;;;;;;5113253;28;20275;-53
2021/03/04 12:40:06;;;;;;;5.37;2.43;;;;;;;;;;5113674;28;20267;-53
2021/03/04 12:42:33;;;;;;;6.00;2.67;;;;;;;;;;5113290;28;20772;-53
2021/03/04 12:45:00;;;;;;;4.30;2.23;;;;;;;;;;5113330;28;20264;-53
2021/03/04 12:47:26;;;;;;;4.70;2.27;;;;;;;;;;5113129;28;20259;-53
2021/03/04 12:49:53;;;;;;;5.33;2.87;;;;;;;;;;5113929;27;20650;-53
2021/03/04 12:52:20;;;;;;;4.73;2.77;;;;;;;;;;5113307;28;20330;-53
2021/03/04 12:54:49;;;;;;;6.20;3.20;;;;;;;;;;5113182;28;20649;-53
2021/03/04 12:57:16;;;;;;;7.47;3.40;;;;;;;;;;5113089;28;20294;-53
2021/03/04 12:59:43;;;;;;;5.80;2.90;;;;;;;;;;5113163;28;20272;-53
2021/03/04 13:02:10;;;;;;;6.93;3.87;;;;;;;;;;5113026;28;20256;-53
2021/03/04 13:04:36;;;;;;;5.33;3.33;;;;;;;;;;5112963;28;20291;-53
2021/03/04 13:07:03;;;;;;;7.47;3.10;;;;;;;;;;5112850;28;20259;-53
2021/03/04 13:09:30;;;;;;;12.97;3.50;;;;;;;;;;5112799;28;20316;-53
2021/03/04 13:11:57;;;;;;;7.60;3.07;;;;;;;;;;5112772;28;20490;-53
2021/03/04 13:14:24;;;;;;;7.80;4.03;;;;;;;;;;5113035;28;20264;-53
2021/03/04 13:16:50;;;;;;;8.90;4.03;;;;;;;;;;5112893;28;20276;-53
2021/03/04 13:19:17;;;;;;;7.73;3.53;;;;;;;;;;5113378;28;20667;-53
2021/03/04 13:21:44;;;;;;;7.97;4.37;;;;;;;;;;5117088;28;20244;-53
2021/03/04 13:24:11;;;;;;;10.17;4.33;;;;;;;;;;5116916;28;20260;-53
2021/03/04 13:26:38;;;;;;;13.97;6.90;;;;;;;;;;5116810;28;20259;-53
2021/03/04 13:29:05;;;;;;;15.77;7.17;;;;;;;;;;5116881;28;20275;-55
2021/03/04 13:31:31;;;;;;;25.40;10.53;;;;;;;;;;5116793;28;20263;-53
2021/03/04 13:33:58;;;;;;;24.77;10.97;;;;;;;;;;5116794;28;20256;-53
2021/03/04 13:36:25;;;;;;;21.03;8.03;;;;;;;;;;5116612;28;20266;-53
2021/03/04 13:38:52;;;;;;;21.40;7.90;;;;;;;;;;5116590;28;20345;-53
2021/03/04 13:41:19;;;;;;;22.20;9.13;;;;;;;;;;5116652;28;20263;-53
2021/03/04 13:43:46;;;;;;;22.67;8.03;;;;;;;;;;5116541;28;20319;-53
2021/03/04 13:46:12;;;;;;;20.27;6.97;;;;;;;;;;5116353;28;20256;-53
2021/03/04 13:48:39;;;;;;;17.07;5.00;;;;;;;;;;5098907;27;20275;-53
2021/03/04 13:51:06;;;;;;;6.87;3.30;;;;;;;;;;5116201;28;20260;-53
2021/03/04 13:53:33;;;;;;;7.80;3.87;;;;;;;;;;5116255;28;20946;-53
2021/03/04 13:56:00;;;;;;;11.17;5.23;;;;;;;;;;5116187;28;20252;-53
2021/03/04 13:58:27;;;;;;;8.00;4.20;;;;;;;;;;5116153;28;20789;-53
2021/03/04 14:00:54;;;;;;;9.97;4.83;;;;;;;;;;5116112;28;20802;-54
2021/03/04 14:03:21;;;;;;;8.77;4.67;;;;;;;;;;5116223;28;20282;-54
2021/03/04 14:05:48;;;;;;;8.20;4.67;;;;;;;;;;5116093;28;20249;-54
2021/03/04 14:08:15;;;;;;;13.23;4.73;;;;;;;;;;5115901;28;20599;-54
2021/03/04 14:10:42;;;;;;;14.30;5.83;;;;;;;;;;5115952;28;20252;-54
2021/03/04 14:13:09;;;;;;;20.17;6.03;;;;;;;;;;5115920;28;20248;-54
2021/03/04 14:15:36;;;;;;;9.47;4.70;;;;;;;;;;5115938;28;20023;-54
2021/03/04 14:18:02;;;;;;;10.83;4.80;;;;;;;;;;5115750;28;20032;-54
2021/03/04 14:20:32;;;;;;;8.47;4.23;;;;;;;;;;5115916;28;20522;-54
2021/03/04 14:22:59;;;;;;;12.17;3.93;;;;;;;;;;5115858;28;20361;-54
2021/03/04 14:25:26;;;;;;;6.57;3.43;;;;;;;;;;5115708;28;20390;-54
2021/03/04 14:27:53;;;;;;;7.30;3.63;;;;;;;;;;5115687;28;20024;-54
2021/03/04 14:30:20;;;;;;;7.47;3.20;;;;;;;;;;5115293;28;20047;-54
2021/03/04 14:32:47;;;;;;;5.40;3.37;;;;;;;;;;5115433;28;20103;-54
2021/03/04 14:35:13;;;;;;;6.80;3.60;;;;;;;;;;5115309;28;20425;-54
2021/03/04 14:37:40;;;;;;;6.63;3.67;;;;;;;;;;5115353;28;20059;-54
2021/03/04 14:40:09;;;;;;;8.23;3.57;;;;;;;;;;5115305;28;20069;-54
2021/03/04 14:42:36;;;;;;;7.70;2.70;;;;;;;;;;5115265;28;20020;-54
2021/03/04 14:45:04;;;;;;;5.23;3.27;;;;;;;;;;5115372;28;20035;-54